createdAt,value
2023-03-21T00:01:53.693Z,9.30
2023-03-21T00:04:25.114Z,8.50
2023-03-21T00:06:54.085Z,8.90
2023-03-21T00:09:22.319Z,8.70
2023-03-21T00:11:50.467Z,8.80
2023-03-21T00:14:20.120Z,10.10
2023-03-21T00:16:53.646Z,9.20
2023-03-21T00:19:24.976Z,9.20
2023-03-21T00:22:06.913Z,8.80
2023-03-21T00:24:37.009Z,9.30
2023-03-21T00:27:30.316Z,10.00
2023-03-21T00:29:56.606Z,9.80
2023-03-21T00:32:25.462Z,12.60
2023-03-21T00:35:04.929Z,12.10
2023-03-21T00:37:42.113Z,12.10
2023-03-21T00:40:27.890Z,12.10
2023-03-21T00:43:01.137Z,11.80
2023-03-21T00:45:29.262Z,14.50
2023-03-21T00:47:58.070Z,15.10
2023-03-21T00:50:26.306Z,17.80
2023-03-21T00:52:56.222Z,14.70
2023-03-21T00:55:26.744Z,14.70
2023-03-21T00:58:01.534Z,13.20
2023-03-21T01:00:31.312Z,13.00
2023-03-21T01:03:17.634Z,12.10
2023-03-21T01:06:05.808Z,11.00
2023-03-21T01:08:51.143Z,11.10
2023-03-21T01:11:28.535Z,9.80
2023-03-21T01:14:10.846Z,9.50
2023-03-21T01:16:43.949Z,9.60
2023-03-21T01:19:25.485Z,9.40
2023-03-21T01:21:56.125Z,10.50
2023-03-21T01:24:25.592Z,9.30
2023-03-21T01:26:54.231Z,9.30
2023-03-21T01:29:22.532Z,8.40
2023-03-21T01:31:50.806Z,9.90
2023-03-21T01:34:19.044Z,10.90
2023-03-21T01:36:47.865Z,10.60
2023-03-21T01:39:20.401Z,11.20
2023-03-21T01:41:50.613Z,12.70
2023-03-21T01:44:57.616Z,12.50
2023-03-21T01:47:29.723Z,12.00
2023-03-21T01:50:22.298Z,13.20
2023-03-21T01:53:09.865Z,12.50
2023-03-21T01:55:39.791Z,13.20
2023-03-21T01:58:20.610Z,12.90
2023-03-21T02:01:25.447Z,13.00
2023-03-21T02:03:54.714Z,12.60
2023-03-21T02:06:57.606Z,12.00
2023-03-21T02:09:44.540Z,12.50
2023-03-21T02:12:18.746Z,12.20
2023-03-21T02:14:50.173Z,13.90
2023-03-21T02:20:39.940Z,12.10
2023-03-21T02:23:29.413Z,12.30
2023-03-21T02:26:24.776Z,12.50
2023-03-21T02:29:18.820Z,12.70
2023-03-21T02:32:28.326Z,12.40
2023-03-21T02:35:41.548Z,12.70
2023-03-21T02:38:25.970Z,13.80
2023-03-21T02:41:19.484Z,13.30
2023-03-21T02:44:24.511Z,14.70
2023-03-21T02:47:06.865Z,12.30
2023-03-21T02:49:58.192Z,14.20
2023-03-21T02:52:39.174Z,12.70
2023-03-21T02:55:20.223Z,13.70
2023-03-21T02:58:01.487Z,12.30
2023-03-21T03:00:36.025Z,12.90
2023-03-21T03:03:09.891Z,12.10
2023-03-21T03:05:49.650Z,10.30
2023-03-21T03:08:49.919Z,10.40
2023-03-21T03:11:38.114Z,9.90
2023-03-21T03:14:52.726Z,9.20
2023-03-21T03:17:43.874Z,9.10
2023-03-21T03:20:21.042Z,9.00
2023-03-21T03:23:28.236Z,8.70
2023-03-21T03:26:04.596Z,9.20
2023-03-21T03:28:39.815Z,8.90
2023-03-21T03:31:15.587Z,9.20
2023-03-21T03:33:53.496Z,8.80
2023-03-21T03:39:10.384Z,8.80
2023-03-21T03:42:10.098Z,8.90
2023-03-21T03:44:42.763Z,9.00
2023-03-21T03:47:31.726Z,9.50
2023-03-21T03:50:31.103Z,9.10
2023-03-21T03:53:23.662Z,9.50
2023-03-21T03:55:56.410Z,9.30
2023-03-21T03:58:39.502Z,8.60
2023-03-21T04:01:11.723Z,8.10
2023-03-21T04:03:49.730Z,8.10
2023-03-21T04:06:20.177Z,7.10
2023-03-21T04:08:49.181Z,7.10
2023-03-21T04:11:17.361Z,7.30
2023-03-21T04:13:49.257Z,8.30
2023-03-21T04:16:23.521Z,7.20
2023-03-21T04:18:52.802Z,6.90
2023-03-21T04:21:21.955Z,7.80
2023-03-21T04:23:50.579Z,8.40
2023-03-21T04:26:24.521Z,8.10
2023-03-21T04:29:15.651Z,8.70
2023-03-21T04:32:27.144Z,8.50
2023-03-21T04:35:02.684Z,7.90
2023-03-21T04:37:33.998Z,8.40
2023-03-21T04:40:06.836Z,8.60
2023-03-21T04:42:35.334Z,8.10
2023-03-21T04:45:04.972Z,8.90
2023-03-21T04:47:33.779Z,9.00
2023-03-21T04:50:02.087Z,9.20
2023-03-21T04:52:30.213Z,10.10
2023-03-21T04:54:58.385Z,9.20
2023-03-21T04:57:27.044Z,8.60
2023-03-21T04:59:55.557Z,9.60
2023-03-21T05:02:23.806Z,9.00
2023-03-21T05:04:52.053Z,9.10
2023-03-21T05:07:20.268Z,9.60
2023-03-21T05:09:48.390Z,9.70
2023-03-21T05:12:19.532Z,11.20
2023-03-21T05:14:47.716Z,10.10
2023-03-21T05:17:23.181Z,12.10
2023-03-21T05:19:52.981Z,11.40
2023-03-21T05:22:21.137Z,9.80
2023-03-21T05:24:50.247Z,9.50
2023-03-21T05:27:34.605Z,9.60
2023-03-21T05:30:09.813Z,9.80
2023-03-21T05:32:38.514Z,9.90
2023-03-21T05:35:10.812Z,9.10
2023-03-21T05:37:39.016Z,9.00
2023-03-21T05:40:09.615Z,9.10
2023-03-21T05:42:39.379Z,9.20
2023-03-21T05:45:16.214Z,8.50
2023-03-21T05:47:44.448Z,8.80
2023-03-21T05:50:13.474Z,8.60
2023-03-21T05:52:43.440Z,9.00
2023-03-21T05:55:13.666Z,8.40
2023-03-21T05:57:41.870Z,8.80
2023-03-21T06:00:17.188Z,8.80
2023-03-21T06:02:45.827Z,9.00
2023-03-21T06:05:58.004Z,8.40
2023-03-21T06:08:30.379Z,8.40
2023-03-21T06:10:58.569Z,9.40
2023-03-21T06:13:26.744Z,8.60
2023-03-21T06:15:54.968Z,9.00
2023-03-21T06:18:25.697Z,9.30
2023-03-21T06:21:02.365Z,9.80
2023-03-21T06:23:30.555Z,9.30
2023-03-21T06:25:59.217Z,9.20
2023-03-21T06:28:27.647Z,9.10
2023-03-21T06:30:56.020Z,8.70
2023-03-21T06:33:26.671Z,7.90
2023-03-21T06:35:57.642Z,9.10
2023-03-21T06:38:26.282Z,8.60
2023-03-21T06:40:54.857Z,8.80
2023-03-21T06:43:25.288Z,8.70
2023-03-21T06:45:53.869Z,8.60
2023-03-21T06:48:22.465Z,8.40
2023-03-21T06:50:53.122Z,8.60
2023-03-21T06:53:27.195Z,8.40
2023-03-21T06:56:15.449Z,8.30
2023-03-21T06:58:43.870Z,9.70
2023-03-21T07:01:18.648Z,12.10
2023-03-21T07:03:57.595Z,10.90
2023-03-21T07:06:26.952Z,12.80
2023-03-21T07:08:56.649Z,14.20
2023-03-21T07:11:25.853Z,13.10
2023-03-21T07:13:54.612Z,14.40
2023-03-21T07:16:25.178Z,13.70
2023-03-21T07:18:53.623Z,12.60
2023-03-21T07:21:22.049Z,13.10
2023-03-21T07:23:50.877Z,17.20
2023-03-21T07:26:19.322Z,44.90
2023-03-21T07:28:48.002Z,27.70
2023-03-21T07:31:17.668Z,39.40
2023-03-21T07:33:46.281Z,21.50
2023-03-21T07:36:16.253Z,16.10
2023-03-21T07:38:45.982Z,13.90
2023-03-21T07:43:47.469Z,16.40
2023-03-21T07:46:15.737Z,12.50
2023-03-21T07:48:43.918Z,10.60
2023-03-21T07:51:12.052Z,9.60
2023-03-21T07:53:42.017Z,8.50
2023-03-21T07:56:10.266Z,9.50
2023-03-21T07:58:38.646Z,9.70
2023-03-21T08:01:06.954Z,14.50
2023-03-21T08:03:35.161Z,11.30
2023-03-21T08:06:03.795Z,9.30
2023-03-21T08:08:33.613Z,8.90
2023-03-21T08:11:01.845Z,8.40
2023-03-21T08:13:29.992Z,8.60
2023-03-21T08:15:58.092Z,9.70
2023-03-21T08:18:26.573Z,8.60
2023-03-21T08:20:56.895Z,10.20
2023-03-21T08:23:26.050Z,8.60
2023-03-21T08:25:55.878Z,9.80
2023-03-21T08:28:25.061Z,10.20
2023-03-21T08:30:53.660Z,9.60
2023-03-21T08:33:21.827Z,9.60
2023-03-21T08:35:50.329Z,12.90
2023-03-21T08:38:18.577Z,11.20
2023-03-21T08:40:46.763Z,11.70
2023-03-21T08:43:15.089Z,10.90
2023-03-21T08:45:43.672Z,9.90
2023-03-21T08:48:11.921Z,9.60
2023-03-21T08:50:40.531Z,9.90
2023-03-21T08:53:08.670Z,10.20
2023-03-21T08:55:37.996Z,9.40
2023-03-21T08:58:07.393Z,9.60
2023-03-21T09:00:35.611Z,9.70
2023-03-21T09:03:05.096Z,8.90
2023-03-21T09:05:33.707Z,9.60
2023-03-21T09:08:03.538Z,10.70
2023-03-21T09:10:32.267Z,9.10
2023-03-21T09:13:00.779Z,9.30
2023-03-21T09:15:29.898Z,10.30
2023-03-21T09:18:13.274Z,10.30
2023-03-21T09:20:46.767Z,11.00
2023-03-21T09:23:15.385Z,11.40
2023-03-21T09:25:46.133Z,9.90
2023-03-21T09:28:14.496Z,11.30
2023-03-21T09:30:42.699Z,10.50
2023-03-21T09:33:19.278Z,10.60
2023-03-21T09:35:48.653Z,11.20
2023-03-21T09:38:17.855Z,11.50
2023-03-21T09:41:23.844Z,15.80
2023-03-21T09:44:17.490Z,13.10
2023-03-21T09:47:21.682Z,10.20
2023-03-21T09:50:13.123Z,10.90
2023-03-21T09:53:19.136Z,32.50
2023-03-21T09:55:47.558Z,17.40
2023-03-21T09:58:40.499Z,13.90
2023-03-21T10:01:28.323Z,14.80
2023-03-21T10:04:01.033Z,13.20
2023-03-21T10:06:30.664Z,12.70
2023-03-21T10:09:08.584Z,12.30
2023-03-21T10:11:54.352Z,12.00
2023-03-21T10:15:05.434Z,12.00
2023-03-21T10:17:41.209Z,11.20
2023-03-21T10:20:16.335Z,14.10
2023-03-21T10:22:47.721Z,11.60
2023-03-21T10:25:22.040Z,11.70
2023-03-21T10:27:52.659Z,11.50
2023-03-21T10:30:47.752Z,11.80
2023-03-21T10:33:22.734Z,11.20
2023-03-21T10:35:58.996Z,11.50
2023-03-21T10:38:27.372Z,11.50
2023-03-21T10:40:56.111Z,12.20
2023-03-21T10:43:26.971Z,20.00
2023-03-21T10:45:56.607Z,26.10
2023-03-21T10:48:25.676Z,13.70
2023-03-21T10:50:56.264Z,11.90
2023-03-21T10:53:38.594Z,13.30
2023-03-21T10:56:12.209Z,13.20
2023-03-21T10:58:47.345Z,16.40
2023-03-21T11:01:31.704Z,12.00
2023-03-21T11:04:06.767Z,12.80
2023-03-21T11:06:40.273Z,11.50
2023-03-21T11:09:20.354Z,11.60
2023-03-21T11:12:02.210Z,10.50
2023-03-21T11:14:43.946Z,12.10
2023-03-21T11:17:18.180Z,14.60
2023-03-21T11:19:57.800Z,17.10
2023-03-21T11:22:39.131Z,14.40
2023-03-21T11:25:16.000Z,11.90
2023-03-21T11:27:51.062Z,10.80
2023-03-21T11:30:28.084Z,11.00
2023-03-21T11:32:58.992Z,9.80
2023-03-21T11:35:37.814Z,10.20
2023-03-21T11:38:26.011Z,9.60
2023-03-21T11:40:59.635Z,10.40
2023-03-21T11:43:31.829Z,9.50
2023-03-21T11:46:14.581Z,10.70
2023-03-21T11:48:45.376Z,10.70
2023-03-21T11:51:30.759Z,11.50
2023-03-21T11:54:25.325Z,10.90
2023-03-21T11:57:02.832Z,11.70
2023-03-21T12:00:18.216Z,10.80
2023-03-21T12:03:23.939Z,11.00
2023-03-21T12:06:03.323Z,16.90
2023-03-21T12:08:56.556Z,13.10
2023-03-21T12:11:52.475Z,10.90
2023-03-21T12:14:37.342Z,10.40
2023-03-21T12:17:27.102Z,10.70
2023-03-21T12:20:12.110Z,10.80
2023-03-21T12:23:18.967Z,10.10
2023-03-21T12:26:11.337Z,9.30
2023-03-21T12:29:04.203Z,9.30
2023-03-21T12:32:06.516Z,9.30
2023-03-21T12:35:36.705Z,10.20
2023-03-21T12:38:38.564Z,7.50
2023-03-21T12:41:33.787Z,7.50
2023-03-21T12:44:17.194Z,6.10
2023-03-21T12:47:03.516Z,6.30
2023-03-21T12:49:43.155Z,6.30
2023-03-21T12:52:16.884Z,5.00
2023-03-21T13:13:42.510Z,4.50
2023-03-21T13:16:42.653Z,3.70
2023-03-21T13:19:31.901Z,3.90
2023-03-21T13:22:18.770Z,6.30
2023-03-21T13:24:57.621Z,5.40
2023-03-21T13:27:32.255Z,6.30
2023-03-21T13:30:21.755Z,6.30
2023-03-21T13:32:52.070Z,10.50
2023-03-21T13:35:45.414Z,5.90
2023-03-21T13:41:07.810Z,3.70
2023-03-21T13:43:53.061Z,3.20
2023-03-21T13:46:27.325Z,3.10
2023-03-21T13:49:07.953Z,3.60
2023-03-21T13:51:46.734Z,3.40
2023-03-21T13:54:14.829Z,3.30
2023-03-21T13:56:48.935Z,3.40
2023-03-21T13:59:37.621Z,3.00
2023-03-21T14:02:11.963Z,3.20
2023-03-21T14:05:00.177Z,3.20
2023-03-21T14:07:42.688Z,3.20
2023-03-21T14:10:52.503Z,3.30
2023-03-21T14:13:24.893Z,3.30
2023-03-21T14:16:08.542Z,4.20
2023-03-21T14:18:55.209Z,3.90
2023-03-21T14:21:29.668Z,4.90
2023-03-21T14:24:12.999Z,5.10
2023-03-21T14:29:36.260Z,4.60
2023-03-21T14:32:06.054Z,3.80
2023-03-21T14:34:36.087Z,4.40
2023-03-21T14:37:07.972Z,4.30
2023-03-21T14:39:36.226Z,3.90
2023-03-21T14:42:15.101Z,4.30
2023-03-21T14:44:56.904Z,4.00
2023-03-21T14:47:31.411Z,4.60
2023-03-21T14:50:01.264Z,3.60
2023-03-21T14:52:34.722Z,3.70
2023-03-21T14:55:15.017Z,4.00
2023-03-21T14:57:43.256Z,3.90
2023-03-21T15:00:23.109Z,3.70
2023-03-21T15:02:52.495Z,2.90
2023-03-21T15:05:32.818Z,3.20
2023-03-21T15:08:09.336Z,3.40
2023-03-21T15:10:38.690Z,3.60
2023-03-21T15:13:22.477Z,4.00
2023-03-21T15:15:50.842Z,4.20
2023-03-21T15:18:32.233Z,4.70
2023-03-21T15:21:10.834Z,4.30
2023-03-21T15:23:43.225Z,3.90
2023-03-21T15:26:24.616Z,4.80
2023-03-21T15:28:58.661Z,4.60
2023-03-21T15:31:39.442Z,5.00
2023-03-21T15:34:17.366Z,5.00
2023-03-21T15:36:48.843Z,5.20
2023-03-21T15:39:21.700Z,4.50
2023-03-21T15:42:27.577Z,4.70
2023-03-21T15:45:01.529Z,4.50
2023-03-21T15:47:53.224Z,4.40
2023-03-21T15:50:26.887Z,5.10
2023-03-21T15:52:56.694Z,5.00
2023-03-21T15:55:53.233Z,5.00
2023-03-21T15:58:34.669Z,7.80
2023-03-21T16:01:13.390Z,5.60
2023-03-21T16:04:13.620Z,4.90
2023-03-21T16:07:16.189Z,5.20
2023-03-21T16:09:47.021Z,4.50
2023-03-21T16:12:17.546Z,4.00
2023-03-21T16:14:48.805Z,5.10
2023-03-21T16:17:33.154Z,3.80
2023-03-21T16:20:01.289Z,4.20
2023-03-21T16:22:34.836Z,4.80
2023-03-21T16:25:03.096Z,4.70
2023-03-21T16:27:31.208Z,4.60
2023-03-21T16:29:59.350Z,6.10
2023-03-21T16:32:28.854Z,7.00
2023-03-21T16:34:56.949Z,6.70
2023-03-21T16:37:25.304Z,9.70
2023-03-21T16:39:53.545Z,8.70
2023-03-21T16:42:21.735Z,8.90
2023-03-21T16:44:49.853Z,8.50
2023-03-21T16:47:23.826Z,9.00
2023-03-21T16:49:51.974Z,8.30
2023-03-21T16:52:20.834Z,8.50
2023-03-21T16:54:48.929Z,9.00
2023-03-21T16:57:28.733Z,9.50
2023-03-21T16:59:57.542Z,10.30
2023-03-21T17:02:26.369Z,9.50
2023-03-21T17:04:54.717Z,10.60
2023-03-21T17:07:22.853Z,10.10
2023-03-21T17:09:51.290Z,11.00
2023-03-21T17:12:19.553Z,12.30
2023-03-21T17:14:47.688Z,13.80
2023-03-21T17:17:17.282Z,13.20
2023-03-21T17:19:46.588Z,13.20
2023-03-21T17:22:14.787Z,14.20
2023-03-21T17:24:42.936Z,15.10
2023-03-21T17:27:15.524Z,13.60
2023-03-21T17:29:44.431Z,13.40
2023-03-21T17:32:12.701Z,14.20
2023-03-21T17:34:42.167Z,12.10
2023-03-21T17:37:11.430Z,12.30
2023-03-21T17:39:39.921Z,15.00
2023-03-21T17:42:15.959Z,17.90
2023-03-21T17:44:44.340Z,19.00
2023-03-21T17:47:12.648Z,17.30
2023-03-21T17:49:41.237Z,15.10
2023-03-21T17:52:09.317Z,16.30
2023-03-21T17:54:37.455Z,16.10
2023-03-21T17:57:05.576Z,15.90
2023-03-21T17:59:33.694Z,15.50
2023-03-21T18:02:01.881Z,16.50
2023-03-21T18:04:30.118Z,18.30
2023-03-21T18:07:01.083Z,18.60
2023-03-21T18:09:29.547Z,17.80
2023-03-21T18:11:57.680Z,18.40
2023-03-21T18:14:28.881Z,17.90
2023-03-21T18:16:58.526Z,17.70
2023-03-21T18:19:27.387Z,17.10
2023-03-21T18:21:56.218Z,18.40
2023-03-21T18:24:24.620Z,19.00
2023-03-21T18:26:52.810Z,17.40
2023-03-21T18:32:09.423Z,21.60
2023-03-21T18:34:39.627Z,21.60
2023-03-21T18:37:10.018Z,24.30
2023-03-21T18:39:39.649Z,25.50
2023-03-21T18:42:14.784Z,26.30
2023-03-21T18:44:47.611Z,23.10
2023-03-21T18:47:16.738Z,20.70
2023-03-21T18:52:33.303Z,19.20
2023-03-21T18:55:02.742Z,17.70
2023-03-21T18:57:37.852Z,18.30
2023-03-21T19:00:18.670Z,18.30
2023-03-21T19:02:50.823Z,19.50
2023-03-21T19:05:23.388Z,17.00
2023-03-21T19:07:53.028Z,17.60
2023-03-21T19:10:24.014Z,16.70
2023-03-21T19:12:54.912Z,18.10
2023-03-21T19:15:24.472Z,17.00
2023-03-21T19:20:46.953Z,16.70
2023-03-21T19:23:16.978Z,17.20
2023-03-21T19:25:45.450Z,16.90
2023-03-21T19:28:13.594Z,17.90
2023-03-21T19:30:49.853Z,18.00
2023-03-21T19:33:20.136Z,26.10
2023-03-21T19:36:07.646Z,25.90
2023-03-21T19:38:39.156Z,27.00
2023-03-21T19:41:07.415Z,28.70
2023-03-21T19:43:36.700Z,30.10
2023-03-21T19:46:05.204Z,30.90
2023-03-21T19:48:33.458Z,32.30
2023-03-21T19:53:51.235Z,32.30
2023-03-21T19:56:23.175Z,57.70
2023-03-21T19:58:55.723Z,38.10
2023-03-21T20:01:24.927Z,32.30
2023-03-21T20:03:53.856Z,31.20
2023-03-21T20:06:23.786Z,29.90
2023-03-21T20:11:41.974Z,31.00
2023-03-21T20:14:10.609Z,30.30
2023-03-21T20:16:38.769Z,29.90
2023-03-21T20:19:10.200Z,31.00
2023-03-21T20:21:49.060Z,30.80
2023-03-21T20:24:20.326Z,32.80
2023-03-21T20:26:52.285Z,34.20
2023-03-21T20:32:09.524Z,26.90
2023-03-21T20:34:38.313Z,24.00
2023-03-21T20:37:07.284Z,23.40
2023-03-21T20:39:36.038Z,22.50
2023-03-21T20:42:05.390Z,24.50
2023-03-21T20:44:55.943Z,23.80
2023-03-21T20:47:22.622Z,23.90
2023-03-21T20:49:50.875Z,23.90
2023-03-21T20:55:09.148Z,21.60
2023-03-21T20:57:39.073Z,22.60
2023-03-21T21:00:14.009Z,23.50
2023-03-21T21:02:45.908Z,22.60
2023-03-21T21:05:34.477Z,23.30
2023-03-21T21:08:03.799Z,22.90
2023-03-21T21:10:33.550Z,23.80
2023-03-21T21:13:02.456Z,42.40
2023-03-21T21:15:30.694Z,34.30
2023-03-21T21:18:08.085Z,30.20
2023-03-21T21:20:38.041Z,27.30
2023-03-21T21:23:06.585Z,37.20
2023-03-21T21:25:35.539Z,30.80
2023-03-21T21:28:03.994Z,27.80
2023-03-21T21:30:33.594Z,27.30
2023-03-21T21:33:01.796Z,26.60
2023-03-21T21:35:30.282Z,27.90
2023-03-21T21:37:58.519Z,26.70
2023-03-21T21:40:26.773Z,27.80
2023-03-21T21:42:55.144Z,27.90
2023-03-21T21:45:23.412Z,26.80
2023-03-21T21:47:51.665Z,27.70
2023-03-21T21:50:22.090Z,23.10
2023-03-21T21:52:52.849Z,24.00
2023-03-21T21:55:21.728Z,25.10
2023-03-21T21:57:53.159Z,23.30
2023-03-21T22:00:21.511Z,24.20
2023-03-21T22:02:49.684Z,25.60
2023-03-21T22:05:19.042Z,25.70
2023-03-21T22:07:49.182Z,26.50
2023-03-21T22:10:19.327Z,27.60
2023-03-21T22:12:47.696Z,27.50
2023-03-21T22:15:18.222Z,26.50
2023-03-21T22:17:46.496Z,28.40
2023-03-21T22:20:18.236Z,26.30
2023-03-21T22:22:47.455Z,27.40
2023-03-21T22:25:17.171Z,26.10
2023-03-21T22:27:45.733Z,25.60
2023-03-21T22:30:17.316Z,26.60
2023-03-21T22:33:02.580Z,26.70
2023-03-21T22:35:36.795Z,25.60
2023-03-21T22:38:05.169Z,24.50
2023-03-21T22:40:33.296Z,26.90
2023-03-21T22:43:01.570Z,24.70
2023-03-21T22:45:29.788Z,24.90
2023-03-21T22:47:59.872Z,24.70
2023-03-21T22:50:28.884Z,25.40
2023-03-21T22:52:57.021Z,24.30
2023-03-21T22:55:25.202Z,24.10
2023-03-21T22:57:53.324Z,25.20
2023-03-21T23:00:21.482Z,25.00
2023-03-21T23:02:49.676Z,24.20
2023-03-21T23:05:18.874Z,22.00
2023-03-21T23:07:46.984Z,21.10
2023-03-21T23:10:15.520Z,22.60
2023-03-21T23:12:43.674Z,24.60
2023-03-21T23:15:11.882Z,23.70
2023-03-21T23:17:40.115Z,24.50
2023-03-21T23:20:08.709Z,24.90
2023-03-21T23:22:37.006Z,26.70
2023-03-21T23:25:06.756Z,24.40
2023-03-21T23:27:37.792Z,26.30
2023-03-21T23:30:07.887Z,25.30
2023-03-21T23:32:36.289Z,24.80
2023-03-21T23:35:05.011Z,26.90
2023-03-21T23:37:33.175Z,27.70
2023-03-21T23:40:01.485Z,27.90
2023-03-21T23:42:30.520Z,26.00
2023-03-21T23:44:58.777Z,27.00
2023-03-21T23:47:27.052Z,26.70
2023-03-21T23:49:55.192Z,28.10
2023-03-21T23:52:23.400Z,26.50
2023-03-21T23:54:51.950Z,26.80
2023-03-21T23:57:20.272Z,22.70
2023-03-21T23:59:48.425Z,21.30
